首页
METAR-TAF:

METAR-TAF

机场 :

哥倫比亞, 密蘇里州, 美国

纬度: 38-49-01N, 经度: 092-13-06W, 海拔: 271米

当前天气观测

该预报发布于48分钟前的09:54 UTC
风速9节,风向东南
温度 11°C
湿度 71%
气压 1016 hPa
能見度: 16.1公里
天空无云

METAR: KCOU 020954Z AUTO 13009KT 10SM CLR 11/06 A3000 RMK AO2 SLP156 T01060056

时间: 05:42 (10:42 UTC)

预报

该预报发布于5小时和22分钟前的05:20 UTC
预报有效从02日的 06点(UTC)到 03日的 06点(UTC)
风速10节,风向东南
能見度: 10公里
多云层高于25000英尺
从 02日的 1500点(UTC)
风速15节,风向南转南东,有时为22节阵风
能見度: 10公里
多云层高于25000英尺
从 02日的 2100点(UTC)
风速14节,风向南转南东
能見度: 10公里
多云层高于10000英尺
附近有阵雨

TAF: KCOU 020520Z 0206/0306 14010KT P6SM BKN250 FM021500 15015G22KT P6SM BKN250 FM022100 15014KT P6SM VCSH BKN100

超过4000个机场的气象观测和天气预报(METAR&TAF报告)。

可查询的气象台以黄色和红色小点在地图上表示。

将鼠标移到小点上方,可查看气象台名称。

然后点击查看天气观测和预报。

如需切换地图:点击带黑十字的绿色按钮放大地图;点击带横线的绿色按钮缩小地图;或者点击绿色箭头查看邻近地区的地图。


METAR-TAF: